Flag for USA

Past Weather in Atlanta, Georgia, USA — November 2018

Currently: 60 °F. Partly sunny. (Weather station: Fulton County Airport-Brown Field, USA). See more current weather

November 2018 Weather in Atlanta — Graph

°F

High & Low Weather Summary for November 2018

 TemperatureHumidityPressure
High73 °F (Nov 7, 1:53 pm)100% (Nov 1, 12:53 am)30.37 "Hg (Nov 1, 12:53 am)
Low26 °F (Nov 28, 6:53 am)30% (Nov 28, 3:53 pm)29.69 "Hg (Nov 1, 4:53 pm)
Average49 °F84%30.09 "Hg
* Reported Nov 1 12:53 am — Nov 30 11:53 pm, Atlanta. Weather by CustomWeather, © 2021

Note: Actual official high and low records may vary slightly from our data, if they occured in-between our weather recording intervals... More about our weather records

Atlanta Weather History for November 1, 2018

Scroll right to see more
 ConditionsComfort  
Time TempWeatherWind HumidityBarometerVisibility
12:53 am
Thu, Nov 1
56 °FClear.No wind100%30.00 "Hg10 mi
1:53 am65 °FClear.6 mph73%29.98 "Hg10 mi
2:53 am64 °FClear.5 mph73%29.96 "Hg10 mi
3:53 am62 °FClear.6 mph78%29.94 "Hg10 mi
4:53 am62 °FClear.8 mph80%29.91 "Hg10 mi
5:53 am62 °FClear.7 mph86%29.90 "Hg10 mi
6:53 am63 °FClear.8 mph87%29.88 "Hg10 mi
7:53 am64 °FPartly cloudy.9 mph87%29.88 "Hg10 mi
8:53 am65 °FOvercast.10 mph91%29.88 "Hg10 mi
9:53 am66 °FOvercast.10 mph90%29.88 "Hg10 mi
10:53 am66 °FOvercast.14 mph90%29.86 "Hg10 mi
11:53 am68 °FOvercast.12 mph87%29.85 "Hg10 mi
12:53 pm70 °FMostly cloudy.13 mph81%29.80 "Hg10 mi
2:01 pm69 °FLight rain. Mostly cloudy.12 mph90%29.77 "Hg8 mi
2:53 pm66 °FLight rain. Fog.6 mph100%29.77 "Hg6 mi
3:53 pm64 °FLight rain. Overcast.6 mph97%29.77 "Hg10 mi
4:53 pm63 °FLight rain. Overcast.13 mph100%29.69 "Hg10 mi
5:09 pm63 °FBroken clouds.3 mph100%29.75 "Hg10 mi
5:53 pm63 °FSunny.No wind97%29.73 "Hg10 mi
6:53 pm62 °FPassing clouds.3 mph100%29.75 "Hg10 mi
7:53 pm62 °FPassing clouds.3 mph100%29.78 "Hg10 mi
8:53 pm63 °FMostly cloudy.5 mph100%29.80 "Hg10 mi
9:24 pm63 °FMostly cloudy.6 mph100%29.82 "Hg10 mi
9:53 pm63 °FMostly cloudy.5 mph100%29.80 "Hg10 mi
10:20 pm63 °FMostly cloudy.5 mph100%29.83 "Hg10 mi
10:53 pm63 °FMostly cloudy.6 mph100%29.80 "Hg10 mi
11:29 pm63 °FMostly cloudy.5 mph100%29.82 "Hg10 mi
11:53 pm63 °FMostly cloudy.6 mph100%29.81 "Hg10 mi
Weather by CustomWeather, © 2021

See weather overview